Time;durP1;ratioP1;P1;durP2;ratioP2;P2;SDS_P1;SDS_P2;PMS_P1;PMS_P2;Temp;Humidity;BMP_temperature;BMP_pressure;BME280_temperature;BME280_humidity;BME280_pressure;Samples;Min_cycle;Max_cycle;Signal;HPM_P1;HPM_P2
2023/12/22 00:01:52;;;;;;;13.30;2.55;;;;;;;9.87;100.00;100362.09;6120765;23;20010;-87
2023/12/22 00:04:18;;;;;;;9.13;2.40;;;;;;;9.80;100.00;100364.22;6120641;23;20433;-85
2023/12/22 00:06:43;;;;;;;9.70;2.08;;;;;;;9.81;100.00;100365.84;6119939;23;20385;-87
2023/12/22 00:09:08;;;;;;;10.00;2.20;;;;;;;9.85;100.00;100362.22;6118043;23;20002;-87
2023/12/22 00:11:34;;;;;;;4.60;1.60;;;;;;;9.98;100.00;100346.88;6116833;23;20014;-87
2023/12/22 00:13:59;;;;;;;8.27;1.70;;;;;;;9.94;100.00;100347.13;6118398;23;20002;-88
2023/12/22 00:16:24;;;;;;;11.50;1.88;;;;;;;9.98;100.00;100357.19;6118264;23;20033;-88
2023/12/22 00:18:50;;;;;;;7.15;1.30;;;;;;;9.97;100.00;100365.00;6118645;23;20009;-87
2023/12/22 00:21:15;;;;;;;8.02;1.98;;;;;;;9.99;100.00;100358.00;6118520;23;20417;-88
2023/12/22 00:23:41;;;;;;;9.63;1.65;;;;;;;10.06;100.00;100355.00;6118004;23;20006;-88
2023/12/22 00:26:06;;;;;;;11.05;1.92;;;;;;;10.06;100.00;100355.00;6117714;23;20372;-87
2023/12/22 00:28:31;;;;;;;9.43;2.05;;;;;;;10.01;100.00;100369.06;6120387;23;20002;-88
2023/12/22 00:30:58;;;;;;;8.35;1.80;;;;;;;10.10;100.00;100381.47;6120495;23;20077;-87
2023/12/22 00:33:23;;;;;;;11.18;2.03;;;;;;;10.02;100.00;100370.72;6119046;23;20447;-88
2023/12/22 00:35:48;;;;;;;8.50;1.45;;;;;;;10.06;100.00;100373.03;6119972;23;20033;-88
2023/12/22 00:38:14;;;;;;;14.13;2.63;;;;;;;10.06;100.00;100380.78;6120431;23;20429;-87
2023/12/22 00:40:39;;;;;;;7.57;1.55;;;;;;;9.99;100.00;100373.47;6120509;23;20436;-87
2023/12/22 00:43:04;;;;;;;7.88;1.60;;;;;;;10.03;100.00;100362.09;6118646;23;20507;-86
2023/12/22 00:45:30;;;;;;;7.65;1.90;;;;;;;10.10;100.00;100365.16;6119792;23;20010;-86
2023/12/22 00:47:55;;;;;;;11.23;2.63;;;;;;;9.98;100.00;100352.03;6120134;23;20013;-86
2023/12/22 00:50:20;;;;;;;13.95;2.97;;;;;;;9.81;100.00;100370.19;6120638;23;20020;-87
2023/12/22 00:52:46;;;;;;;9.50;2.10;;;;;;;9.93;100.00;100366.09;6121446;23;20001;-87
2023/12/22 00:55:11;;;;;;;13.73;2.20;;;;;;;9.85;100.00;100362.22;6120850;23;20002;-88
2023/12/22 00:57:37;;;;;;;15.98;3.50;;;;;;;9.94;100.00;100363.41;6121162;23;20426;-86
2023/12/22 01:00:04;;;;;;;17.25;2.70;;;;;;;9.96;100.00;100360.78;6121210;23;20006;-88
2023/12/22 01:02:30;;;;;;;9.68;2.33;;;;;;;9.87;100.00;100362.09;6121519;23;20081;-87
2023/12/22 01:04:55;;;;;;;10.73;2.35;;;;;;;9.79;100.00;100362.53;6121469;23;20397;-87
2023/12/22 01:07:20;;;;;;;18.80;2.63;;;;;;;9.81;100.00;100370.19;6121362;23;20077;-87
2023/12/22 01:09:46;;;;;;;13.45;2.80;;;;;;;9.85;100.00;100357.06;6121542;23;20006;-86
2023/12/22 01:12:11;;;;;;;15.48;2.60;;;;;;;9.93;100.00;100358.38;6121330;23;20006;-86
2023/12/22 01:14:36;;;;;;;14.30;2.22;;;;;;;9.88;100.00;100366.34;6121122;23;20009;-88
2023/12/22 01:17:02;;;;;;;10.32;1.70;;;;;;;9.85;100.00;100356.19;6119681;23;20360;-88
2023/12/22 01:19:27;;;;;;;11.80;2.70;;;;;;;9.99;100.00;100358.84;6121425;23;20047;-87
2023/12/22 01:21:53;;;;;;;15.23;1.88;;;;;;;9.95;100.00;100357.38;6121282;23;20093;-86
2023/12/22 01:24:18;;;;;;;14.57;2.38;;;;;;;9.94;100.00;100355.69;6121036;23;20053;-88
2023/12/22 01:26:44;;;;;;;12.85;2.13;;;;;;;9.97;100.00;100360.69;6121428;23;20337;-87
2023/12/22 01:29:09;;;;;;;15.65;2.47;;;;;;;9.88;100.00;100347.50;6121435;23;20479;-88
2023/12/22 01:31:34;;;;;;;16.88;3.10;;;;;;;9.91;100.00;100347.31;6120815;23;20337;-86
2023/12/22 01:34:00;;;;;;;10.15;2.47;;;;;;;9.93;100.00;100348.88;6120981;23;20064;-88
2023/12/22 01:36:25;;;;;;;10.70;2.17;;;;;;;9.96;100.00;100358.19;6120958;23;20002;-86
2023/12/22 01:38:50;;;;;;;17.30;2.15;;;;;;;10.00;100.00;100346.78;6120279;23;20026;-88
2023/12/22 01:41:16;;;;;;;14.93;2.78;;;;;;;10.06;100.00;100342.09;6120775;23;20009;-86
2023/12/22 01:43:41;;;;;;;12.20;1.70;;;;;;;10.00;100.00;100339.06;6120682;23;20013;-88
2023/12/22 01:46:09;;;;;;;12.40;2.47;;;;;;;9.99;100.00;100339.97;6120967;23;20495;-88
2023/12/22 01:48:36;;;;;;;10.32;2.03;;;;;;;10.00;100.00;100339.06;6119039;23;20389;-88
2023/12/22 01:51:02;;;;;;;13.43;2.13;;;;;;;10.03;100.00;100339.72;6120569;23;20010;-88
2023/12/22 01:53:28;;;;;;;16.70;2.17;;;;;;;10.08;100.00;100342.03;6120356;23;20002;-88
2023/12/22 01:55:55;;;;;;;7.00;1.80;;;;;;;10.04;100.00;100341.34;6119487;23;20006;-88
2023/12/22 01:58:23;;;;;;;14.00;2.17;;;;;;;10.01;100.00;100345.88;6121205;23;20009;-88
2023/12/22 02:00:48;;;;;;;10.32;2.10;;;;;;;10.06;100.00;100333.53;6120988;23;20085;-87
2023/12/22 02:03:14;;;;;;;11.45;1.90;;;;;;;10.07;100.00;100330.88;6120913;23;20034;-88
2023/12/22 02:05:42;;;;;;;6.97;2.40;;;;;;;10.13;100.00;100334.84;6121068;23;20404;-87
2023/12/22 02:08:07;;;;;;;12.50;2.17;;;;;;;10.06;100.00;100323.22;6121141;23;20059;-89
2023/12/22 02:10:33;;;;;;;6.45;1.80;;;;;;;10.05;100.00;100329.31;6121222;23;19998;-88
2023/12/22 02:12:58;;;;;;;18.80;2.50;;;;;;;10.04;100.00;100330.22;6121217;23;20051;-88
2023/12/22 02:15:24;;;;;;;9.98;1.45;;;;;;;10.05;100.00;100329.31;6121023;23;20009;-89
2023/12/22 02:18:06;;;;;;;8.68;1.58;;;;;;;10.08;100.00;100329.13;6121004;23;20321;-88
2023/12/22 02:20:32;;;;;;;5.00;1.33;;;;;;;10.02;100.00;100332.91;6119808;23;20006;-88
2023/12/22 02:22:57;;;;;;;8.77;1.83;;;;;;;10.07;100.00;100335.19;6120908;23;20009;-87
2023/12/22 02:25:22;;;;;;;10.38;1.70;;;;;;;10.06;100.00;100325.81;6120943;23;20003;-89
2023/12/22 02:27:49;;;;;;;11.68;2.30;;;;;;;10.05;100.00;100327.56;6121131;23;20116;-88
2023/12/22 02:30:37;;;;;;;6.25;1.00;;;;;;;10.13;100.00;100337.44;6120987;23;20049;-87
2023/12/22 02:33:08;;;;;;;6.75;1.55;;;;;;;10.21;100.00;100334.41;6121083;23;20332;-87
2023/12/22 02:35:36;;;;;;;13.52;2.03;;;;;;;10.10;100.00;100335.03;6121067;23;20002;-87
2023/12/22 02:38:04;;;;;;;10.52;1.50;;;;;;;10.13;100.00;100334.03;6120958;23;20002;-88
2023/12/22 02:40:30;;;;;;;12.07;1.65;;;;;;;10.18;100.00;100327.69;6120350;23;20006;-88
2023/12/22 02:42:56;;;;;;;9.73;1.80;;;;;;;10.06;100.00;100329.22;6121094;23;20002;-88
2023/12/22 02:45:21;;;;;;;14.80;1.63;;;;;;;10.13;100.00;100321.13;6120936;23;20085;-87
2023/12/22 02:47:47;;;;;;;8.18;2.67;;;;;;;10.11;100.00;100321.22;6120873;23;20110;-89
2023/12/22 02:50:15;;;;;;;9.15;1.48;;;;;;;10.09;100.00;100312.72;6121009;23;20493;-88
2023/12/22 02:52:40;;;;;;;8.88;1.92;;;;;;;10.06;100.00;100318.06;6120918;23;20057;-88
2023/12/22 02:55:06;;;;;;;8.75;1.42;;;;;;;10.10;100.00;100319.56;6119224;23;20433;-88
2023/12/22 02:57:32;;;;;;;6.28;1.42;;;;;;;10.12;100.00;100317.72;6121090;23;20002;-88
2023/12/22 02:59:57;;;;;;;11.88;1.85;;;;;;;10.15;100.00;100312.38;6120756;23;20090;-89
2023/12/22 03:02:23;;;;;;;9.18;1.75;;;;;;;10.11;100.00;100316.06;6120961;23;20041;-88
2023/12/22 03:04:49;;;;;;;12.38;1.88;;;;;;;10.15;100.00;100302.06;6120896;23;20026;-88
2023/12/22 03:07:14;;;;;;;9.70;2.40;;;;;;;10.14;100.00;100297.81;6120841;23;20336;-88
2023/12/22 03:09:41;;;;;;;12.13;1.50;;;;;;;10.15;100.00;100296.09;6120504;23;20033;-88
2023/12/22 03:12:07;;;;;;;8.00;2.42;;;;;;;10.19;100.00;100306.16;6120911;23;20034;-88
2023/12/22 03:14:33;;;;;;;8.00;2.15;;;;;;;10.16;100.00;100308.06;6120939;23;20002;-87
2023/12/22 03:17:05;;;;;;;14.90;1.92;;;;;;;10.12;100.00;100312.56;6121263;23;20077;-88
2023/12/22 03:19:32;;;;;;;7.47;1.35;;;;;;;10.12;100.00;100314.31;6120895;23;20017;-89
2023/12/22 03:21:58;;;;;;;11.23;2.40;;;;;;;10.16;100.00;100308.88;6120707;23;20089;-89
2023/12/22 03:24:24;;;;;;;8.18;1.60;;;;;;;10.11;100.00;100307.50;6120901;23;20002;-88
2023/12/22 03:26:50;;;;;;;9.73;1.77;;;;;;;10.15;100.00;100312.38;6121208;23;20002;-88
2023/12/22 03:29:16;;;;;;;9.40;2.15;;;;;;;10.12;100.00;100304.84;6120999;23;20009;-88
2023/12/22 03:31:42;;;;;;;9.35;2.30;;;;;;;10.21;100.00;100308.63;6119275;23;20017;-89
2023/12/22 03:34:07;;;;;;;11.18;1.55;;;;;;;10.10;100.00;100311.81;6120867;23;20005;-87
2023/12/22 03:36:33;;;;;;;7.28;1.52;;;;;;;10.13;100.00;100310.81;6120855;23;20164;-88
2023/12/22 03:38:58;;;;;;;7.88;2.13;;;;;;;10.23;100.00;100317.09;6120214;23;20009;-87
2023/12/22 03:41:23;;;;;;;7.82;1.27;;;;;;;10.25;100.00;100308.34;6120561;23;20006;-88
2023/12/22 03:43:49;;;;;;;9.98;1.88;;;;;;;10.32;100.00;100311.44;6121076;23;20009;-88
2023/12/22 03:46:14;;;;;;;9.35;1.17;;;;;;;10.08;100.00;100296.44;6120621;23;20081;-89
2023/12/22 03:48:39;;;;;;;15.77;2.30;;;;;;;10.11;100.00;100305.75;6119101;23;20430;-89
2023/12/22 03:51:05;;;;;;;7.63;1.58;;;;;;;10.10;100.00;100293.78;6120733;23;20002;-88
2023/12/22 03:53:30;;;;;;;7.63;1.08;;;;;;;10.17;100.00;100300.25;6120638;23;20049;-88
2023/12/22 03:55:56;;;;;;;10.25;1.45;;;;;;;10.19;100.00;100298.41;6120419;23;20005;-88
2023/12/22 03:58:21;;;;;;;6.53;2.15;;;;;;;10.18;100.00;100294.16;6121024;23;20006;-88
2023/12/22 04:00:47;;;;;;;8.20;1.65;;;;;;;10.22;100.00;100303.38;6120618;23;20002;-88
2023/12/22 04:03:12;;;;;;;9.95;1.30;;;;;;;10.15;100.00;100296.91;6120836;23;20051;-88
2023/12/22 04:05:38;;;;;;;5.05;1.60;;;;;;;10.11;100.00;100285.09;6120601;23;20366;-87
2023/12/22 04:08:05;;;;;;;7.65;1.45;;;;;;;10.08;100.00;100293.03;6120812;23;20025;-87
2023/12/22 04:10:31;;;;;;;7.55;1.27;;;;;;;10.00;100.00;100292.66;6120031;23;20421;-87
2023/12/22 04:12:56;;;;;;;6.00;1.25;;;;;;;10.05;100.00;100288.06;6120565;23;20002;-88
2023/12/22 04:15:21;;;;;;;4.75;0.98;;;;;;;10.03;100.00;100297.63;6118924;23;20052;-87
2023/12/22 04:17:47;;;;;;;8.75;1.42;;;;;;;9.96;100.00;100281.66;6120669;23;20465;-87
2023/12/22 04:20:13;;;;;;;6.65;1.30;;;;;;;9.97;100.00;100279.91;6120634;23;20324;-87
2023/12/22 04:22:38;;;;;;;10.38;1.42;;;;;;;10.01;100.00;100283.97;6120355;23;20006;-87
2023/12/22 04:25:06;;;;;;;6.53;1.40;;;;;;;9.96;100.00;100280.84;6120747;23;20002;-88
2023/12/22 04:27:31;;;;;;;6.75;1.10;;;;;;;9.94;100.00;100280.09;6121451;23;20538;-87
2023/12/22 04:29:56;;;;;;;6.80;1.20;;;;;;;10.03;100.00;100271.84;6121724;23;20016;-89
2023/12/22 04:32:22;;;;;;;2.33;0.77;;;;;;;9.97;100.00;100273.03;6121871;23;20009;-88
2023/12/22 04:34:47;;;;;;;8.40;1.05;;;;;;;10.01;100.00;100273.66;6121545;23;20081;-89
2023/12/22 04:37:12;;;;;;;6.38;0.98;;;;;;;10.05;100.00;100283.72;6121758;23;20013;-90
2023/12/22 04:39:38;;;;;;;4.78;1.33;;;;;;;10.06;100.00;100279.38;6119287;23;20010;-87
2023/12/22 04:42:03;;;;;;;6.47;1.20;;;;;;;10.02;100.00;100277.91;6121459;23;20067;-89
2023/12/22 04:44:29;;;;;;;9.15;1.25;;;;;;;10.00;100.00;100292.66;6120008;23;20406;-88
2023/12/22 04:46:54;;;;;;;8.57;1.17;;;;;;;10.03;100.00;100282.16;6121680;23;20048;-89
2023/12/22 04:49:19;;;;;;;10.75;1.58;;;;;;;10.03;100.00;100282.97;6121606;23;20329;-89
2023/12/22 04:51:45;;;;;;;6.13;1.35;;;;;;;9.97;100.00;100296.25;6121593;23;20010;-87
2023/12/22 04:54:10;;;;;;;8.18;1.17;;;;;;;10.06;100.00;100297.44;6121211;23;20036;-89
2023/12/22 04:56:35;;;;;;;9.50;2.28;;;;;;;10.06;100.00;100297.44;6121718;23;20002;-88
2023/12/22 04:59:01;;;;;;;8.30;1.27;;;;;;;9.97;100.00;100292.81;6121692;23;20006;-89
2023/12/22 05:01:26;;;;;;;6.38;1.35;;;;;;;10.14;100.00;100300.41;6121455;23;20006;-88
2023/12/22 05:03:53;;;;;;;11.15;2.78;;;;;;;10.14;100.00;100292.66;6119696;23;20001;-89
2023/12/22 05:06:19;;;;;;;7.93;1.50;;;;;;;9.99;100.00;100296.13;6120960;23;20002;-89
2023/12/22 05:08:44;;;;;;;7.25;1.35;;;;;;;10.05;100.00;100303.53;6120902;23;20006;-89
2023/12/22 05:11:09;;;;;;;7.30;1.73;;;;;;;10.06;100.00;100300.84;6120803;23;20051;-89
2023/12/22 05:13:35;;;;;;;10.20;1.70;;;;;;;10.12;100.00;100302.25;6121813;23;20002;-87
2023/12/22 05:16:00;;;;;;;10.07;2.53;;;;;;;10.05;100.00;100306.09;6121537;23;19998;-89
2023/12/22 05:18:25;;;;;;;10.85;1.73;;;;;;;10.11;100.00;100310.06;6122030;23;20010;-88
2023/12/22 05:20:53;;;;;;;6.32;1.27;;;;;;;10.08;100.00;100311.09;6120204;22;20089;-88
2023/12/22 05:23:18;;;;;;;7.20;1.80;;;;;;;10.09;100.00;100307.56;6122032;23;20038;-88
2023/12/22 05:25:44;;;;;;;7.82;1.73;;;;;;;9.97;100.00;100301.41;6121574;23;20029;-86
2023/12/22 05:28:09;;;;;;;7.25;1.77;;;;;;;9.99;100.00;100315.00;6121605;23;20002;-89
2023/12/22 05:30:34;;;;;;;11.57;1.85;;;;;;;10.16;100.00;100319.19;6119840;23;20014;-89
2023/12/22 05:33:00;;;;;;;11.00;1.85;;;;;;;10.17;100.00;100315.72;6121324;23;20436;-89
2023/12/22 05:35:25;;;;;;;9.50;1.90;;;;;;;10.15;100.00;100327.88;6119799;23;20484;-88
2023/12/22 05:37:51;;;;;;;8.82;1.80;;;;;;;10.07;100.00;100319.72;6120895;23;20010;-88
2023/12/22 05:40:16;;;;;;;13.50;2.60;;;;;;;10.15;100.00;100325.28;6120679;23;20008;-87
2023/12/22 05:42:41;;;;;;;10.65;1.73;;;;;;;10.21;100.00;100327.50;6120966;23;20032;-87
2023/12/22 05:45:08;;;;;;;8.75;2.83;;;;;;;10.10;100.00;100332.47;6121077;23;20009;-88
2023/12/22 05:47:33;;;;;;;14.50;3.40;;;;;;;10.09;100.00;100335.94;6121159;23;19998;-87
2023/12/22 05:49:59;;;;;;;10.00;2.65;;;;;;;10.04;100.00;100335.38;6121156;23;20025;-88
2023/12/22 05:52:24;;;;;;;6.55;1.70;;;;;;;10.04;100.00;100319.91;6121315;23;20089;-88
2023/12/22 05:54:50;;;;;;;12.73;1.83;;;;;;;10.00;100.00;100332.16;6120843;23;20010;-89
2023/12/22 05:57:15;;;;;;;8.27;1.65;;;;;;;9.88;100.00;100344.91;6121257;23;20005;-88
2023/12/22 05:59:41;;;;;;;9.55;2.38;;;;;;;9.96;100.00;100329.81;6121141;23;20009;-88
2023/12/22 06:02:06;;;;;;;9.55;1.60;;;;;;;9.97;100.00;100323.75;6121109;23;20375;-89
2023/12/22 06:04:32;;;;;;;10.30;1.98;;;;;;;10.00;100.00;100328.75;6121216;23;20013;-89
2023/12/22 06:06:57;;;;;;;15.68;2.25;;;;;;;9.94;100.00;100339.41;6121296;23;20030;-89
2023/12/22 06:09:22;;;;;;;8.68;2.25;;;;;;;9.88;100.00;100334.59;6120769;23;19998;-89
2023/12/22 06:11:48;;;;;;;11.35;1.88;;;;;;;9.96;100.00;100340.97;6121302;23;20002;-88
2023/12/22 06:14:13;;;;;;;9.30;2.00;;;;;;;9.93;100.00;100348.06;6121070;23;20013;-89
2023/12/22 06:16:39;;;;;;;9.80;1.98;;;;;;;9.85;100.00;100345.88;6121218;23;20021;-88
2023/12/22 06:19:05;;;;;;;6.55;2.35;;;;;;;9.84;100.00;100347.63;6121128;23;20017;-88
2023/12/22 06:21:30;;;;;;;16.88;3.15;;;;;;;9.81;100.00;100350.41;6120857;23;20131;-89
2023/12/22 06:23:55;;;;;;;15.55;3.33;;;;;;;9.77;100.00;100350.66;6121177;23;20005;-88
2023/12/22 06:26:21;;;;;;;14.65;2.80;;;;;;;9.80;100.00;100348.75;6120967;23;20006;-88
2023/12/22 06:28:46;;;;;;;13.32;3.55;;;;;;;9.78;100.00;100342.84;6121202;23;20332;-88
2023/12/22 06:31:21;;;;;;;13.23;2.85;;;;;;;9.83;100.00;100338.25;6121075;23;20431;-88
2023/12/22 06:33:48;;;;;;;9.20;2.20;;;;;;;9.77;100.00;100346.31;6121440;23;20040;-88
2023/12/22 06:36:20;;;;;;;11.73;2.45;;;;;;;9.65;100.00;100350.41;6121025;23;19998;-88
2023/12/22 06:38:49;;;;;;;10.75;2.05;;;;;;;9.64;100.00;100328.13;6120754;23;20002;-89
2023/12/22 06:41:20;;;;;;;10.02;2.58;;;;;;;9.72;100.00;100345.75;6121024;23;20006;-88
2023/12/22 06:43:46;;;;;;;14.68;2.45;;;;;;;9.63;100.00;100346.25;6120978;23;20481;-87
2023/12/22 06:46:18;;;;;;;15.40;2.00;;;;;;;9.69;100.00;100345.91;6121308;23;20002;-87
2023/12/22 06:48:44;;;;;;;16.45;3.15;;;;;;;9.74;100.00;100355.97;6120807;23;20006;-88
2023/12/22 06:51:20;;;;;;;23.60;3.60;;;;;;;9.64;100.00;100358.22;6121191;23;20102;-88
2023/12/22 06:53:49;;;;;;;20.33;3.47;;;;;;;9.61;100.00;100358.41;6120993;23;20006;-88
2023/12/22 06:56:19;;;;;;;16.10;3.03;;;;;;;9.56;100.00;100362.94;6121117;23;20009;-88
2023/12/22 06:58:47;;;;;;;14.50;2.30;;;;;;;9.51;100.00;100357.22;6121556;23;20447;-86
2023/12/22 07:01:20;;;;;;;19.80;3.03;;;;;;;9.53;100.00;100365.69;6121169;23;20016;-87
2023/12/22 07:03:47;;;;;;;26.48;4.95;;;;;;;9.57;100.00;100362.88;6120853;23;20006;-89
2023/12/22 07:06:14;;;;;;;16.20;4.68;;;;;;;9.52;100.00;100364.88;6121373;23;20006;-89
2023/12/22 07:08:39;;;;;;;16.35;3.72;;;;;;;9.54;100.00;100369.97;6121431;23;20006;-86
2023/12/22 07:11:04;;;;;;;18.00;3.65;;;;;;;9.54;100.00;100368.22;6122296;23;20314;-88
2023/12/22 07:13:30;;;;;;;26.35;4.53;;;;;;;9.55;100.00;100381.91;6121177;23;20012;-88
2023/12/22 07:15:55;;;;;;;21.98;3.65;;;;;;;9.51;100.00;100381.25;6121070;23;20037;-88
2023/12/22 07:18:20;;;;;;;27.17;3.55;;;;;;;9.58;100.00;100381.75;6121464;23;20002;-88
2023/12/22 07:20:46;;;;;;;21.65;3.58;;;;;;;9.49;100.00;100380.50;6121400;23;20006;-87
2023/12/22 07:23:11;;;;;;;20.63;3.28;;;;;;;9.44;100.00;100377.34;6121478;23;20006;-88
2023/12/22 07:25:38;;;;;;;20.23;3.17;;;;;;;9.51;100.00;100394.16;6120723;23;20002;-87
2023/12/22 07:28:04;;;;;;;25.55;4.28;;;;;;;9.46;100.00;100385.84;6121347;23;20503;-87
2023/12/22 07:30:30;;;;;;;24.02;3.72;;;;;;;9.47;100.00;100381.50;6121410;23;19999;-88
2023/12/22 07:32:55;;;;;;;17.63;3.10;;;;;;;9.33;100.00;100395.94;6121131;23;20009;-88
2023/12/22 07:35:20;;;;;;;25.27;4.05;;;;;;;9.35;100.00;100388.97;6120638;23;20081;-88
2023/12/22 07:37:46;;;;;;;25.67;4.82;;;;;;;9.39;100.00;100400.78;6120292;23;20025;-89
2023/12/22 07:40:11;;;;;;;21.88;4.15;;;;;;;9.28;100.00;100397.09;6121275;23;20009;-89
2023/12/22 07:42:37;;;;;;;18.52;3.97;;;;;;;9.34;100.00;100387.31;6120760;23;20006;-86
2023/12/22 07:45:04;;;;;;;33.25;4.45;;;;;;;9.29;100.00;100389.31;6121912;23;20002;-89
2023/12/22 07:47:29;;;;;;;30.50;3.92;;;;;;;9.34;100.00;100389.88;6121256;23;20337;-87
2023/12/22 07:49:55;;;;;;;23.33;4.05;;;;;;;9.36;100.00;100375.19;6121274;23;20006;-89
2023/12/22 07:52:20;;;;;;;27.63;3.65;;;;;;;9.29;100.00;100389.31;6121636;23;20005;-88
2023/12/22 07:54:47;;;;;;;25.70;3.97;;;;;;;9.29;100.00;100393.59;6120528;23;20006;-89
2023/12/22 07:57:12;;;;;;;23.38;4.10;;;;;;;9.35;100.00;100388.97;6121016;23;20013;-89
2023/12/22 07:59:38;;;;;;;25.45;3.80;;;;;;;9.39;100.00;100394.81;6120414;23;20421;-89
2023/12/22 08:02:03;;;;;;;29.50;6.03;;;;;;;9.39;100.00;100384.50;6120782;23;20002;-89
2023/12/22 08:04:28;;;;;;;21.73;4.15;;;;;;;9.36;100.00;100384.63;6120860;23;20051;-88
2023/12/22 08:06:54;;;;;;;18.50;3.20;;;;;;;9.45;100.00;100399.59;6120814;23;20081;-89
2023/12/22 08:09:19;;;;;;;25.10;4.03;;;;;;;9.39;100.00;100389.66;6119957;23;20421;-88
2023/12/22 08:11:46;;;;;;;16.80;3.08;;;;;;;9.37;100.00;100392.28;6119296;23;20421;-86
2023/12/22 08:14:12;;;;;;;29.75;3.88;;;;;;;9.38;100.00;100404.25;6120843;23;20432;-87
2023/12/22 08:16:37;;;;;;;25.08;3.45;;;;;;;9.46;100.00;100403.00;6120873;23;20056;-88
2023/12/22 08:19:03;;;;;;;20.98;3.92;;;;;;;9.45;100.00;100404.75;6120508;23;20006;-89
2023/12/22 08:21:28;;;;;;;31.45;4.07;;;;;;;9.46;100.00;100414.16;6120472;23;20010;-89
2023/12/22 08:23:53;;;;;;;21.17;3.83;;;;;;;9.56;100.00;100417.91;6120518;23;20422;-88
2023/12/22 08:26:19;;;;;;;18.42;3.25;;;;;;;9.46;100.00;100413.31;6120393;23;20013;-88
2023/12/22 08:28:45;;;;;;;19.23;3.95;;;;;;;9.50;100.00;100428.53;6120522;23;20344;-89
2023/12/22 08:31:12;;;;;;;23.42;3.92;;;;;;;9.51;100.00;100425.06;6120031;23;20010;-88
2023/12/22 08:33:40;;;;;;;21.98;3.90;;;;;;;9.58;100.00;100425.53;6120485;23;20009;-88
2023/12/22 08:36:06;;;;;;;21.98;3.28;;;;;;;9.55;100.00;100436.03;6120427;23;20002;-88
2023/12/22 08:38:31;;;;;;;24.63;4.72;;;;;;;9.53;100.00;100427.53;6119929;23;20002;-87
2023/12/22 08:40:57;;;;;;;16.48;3.15;;;;;;;9.54;100.00;100439.53;6120244;23;20492;-88
2023/12/22 08:43:22;;;;;;;20.45;3.42;;;;;;;9.53;100.00;100432.69;6120284;23;20025;-88
2023/12/22 08:45:48;;;;;;;18.63;3.15;;;;;;;9.53;100.00;100430.94;6120137;23;20428;-88
2023/12/22 08:48:13;;;;;;;26.98;4.03;;;;;;;9.54;100.00;100434.38;6120415;23;20021;-88
2023/12/22 08:50:38;;;;;;;19.58;3.17;;;;;;;9.59;100.00;100442.69;6120773;23;20061;-88
2023/12/22 08:53:03;;;;;;;24.92;4.80;;;;;;;9.57;100.00;100437.59;6118841;23;20002;-88
2023/12/22 08:55:29;;;;;;;24.25;3.75;;;;;;;9.61;100.00;100422.81;6118470;23;20010;-88
2023/12/22 08:57:54;;;;;;;22.27;3.78;;;;;;;9.70;100.00;100444.69;6120510;23;20193;-88
2023/12/22 09:00:20;;;;;;;19.65;3.33;;;;;;;9.54;100.00;100454.97;6117948;23;20034;-88
2023/12/22 09:02:45;;;;;;;19.98;3.53;;;;;;;9.50;100.00;100438.00;6120061;23;20002;-88
2023/12/22 09:05:10;;;;;;;28.30;4.03;;;;;;;9.53;100.00;100445.56;6119532;23;20002;-88
2023/12/22 09:07:36;;;;;;;23.63;3.75;;;;;;;9.66;100.00;100438.88;6119910;23;20400;-88
2023/12/22 09:10:03;;;;;;;21.85;3.70;;;;;;;9.49;100.00;100441.53;6119693;23;20006;-88
2023/12/22 09:12:28;;;;;;;19.10;3.78;;;;;;;9.54;100.00;100440.34;6121266;23;20009;-88
2023/12/22 09:14:54;;;;;;;22.40;3.75;;;;;;;9.49;100.00;100444.09;6121506;23;20048;-88
2023/12/22 09:17:19;;;;;;;15.27;2.80;;;;;;;9.51;100.00;100444.81;6121660;23;20006;-88
2023/12/22 09:19:44;;;;;;;19.60;3.90;;;;;;;9.55;100.00;100448.91;6121405;23;20336;-88
2023/12/22 09:22:10;;;;;;;22.40;3.70;;;;;;;9.41;100.00;100447.03;6121592;23;20016;-88
2023/12/22 09:24:35;;;;;;;26.92;4.20;;;;;;;9.46;100.00;100452.81;6121372;23;20037;-88
2023/12/22 09:27:02;;;;;;;31.08;4.47;;;;;;;9.64;100.00;100456.16;6121653;23;20002;-88
2023/12/22 09:29:29;;;;;;;23.17;3.50;;;;;;;9.61;100.00;100466.63;6121657;23;20002;-88
2023/12/22 09:31:55;;;;;;;22.23;3.83;;;;;;;9.59;100.00;100468.44;6120819;23;20009;-88
2023/12/22 09:34:21;;;;;;;21.48;3.03;;;;;;;9.62;100.00;100463.94;6121173;23;20392;-87
2023/12/22 09:36:46;;;;;;;14.98;3.35;;;;;;;9.77;100.00;100472.63;6120301;23;20040;-87
2023/12/22 09:39:16;;;;;;;22.02;3.30;;;;;;;9.76;100.00;100470.97;6120613;23;20009;-88
2023/12/22 09:41:47;;;;;;;22.30;5.28;;;;;;;9.80;100.00;100464.75;6119224;23;20032;-88
2023/12/22 09:44:14;;;;;;;20.98;4.50;;;;;;;9.72;100.00;100463.47;6120401;23;20403;-89
2023/12/22 09:46:40;;;;;;;14.00;2.78;;;;;;;9.73;100.00;100465.97;6119479;23;20010;-88
2023/12/22 09:49:07;;;;;;;17.80;3.10;;;;;;;9.71;100.00;100466.97;6120939;23;20077;-87
2023/12/22 09:51:34;;;;;;;14.50;3.05;;;;;;;9.81;100.00;100474.13;6120438;23;20004;-90
2023/12/22 09:54:02;;;;;;;19.48;3.55;;;;;;;9.79;100.00;100464.81;6119966;23;20010;-89
2023/12/22 09:56:29;;;;;;;21.83;3.17;;;;;;;9.92;100.00;100477.88;6118091;23;20006;-86
2023/12/22 09:58:56;;;;;;;21.13;3.03;;;;;;;9.78;100.00;100478.63;6121228;23;20029;-90
2023/12/22 10:01:22;;;;;;;20.23;3.15;;;;;;;9.85;100.00;100490.25;6119079;23;20054;-89
2023/12/22 10:03:48;;;;;;;22.40;3.53;;;;;;;9.88;100.00;100472.06;6119760;23;20013;-88
2023/12/22 10:06:14;;;;;;;23.55;4.15;;;;;;;9.85;100.00;100488.53;6120388;23;20006;-88
2023/12/22 10:08:39;;;;;;;18.75;3.80;;;;;;;9.80;100.00;100492.22;6120670;23;20446;-89
2023/12/22 10:11:06;;;;;;;16.17;3.50;;;;;;;9.92;100.00;100516.53;6120458;23;20344;-89
2023/12/22 10:13:35;;;;;;;18.98;4.00;;;;;;;9.89;100.00;100511.56;6121001;23;20029;-89
2023/12/22 10:16:02;;;;;;;22.35;3.65;;;;;;;9.83;100.00;100523.84;6119518;23;20432;-91
2023/12/22 10:18:28;;;;;;;21.85;3.42;;;;;;;9.87;100.00;100524.50;6121201;23;20413;-88
2023/12/22 10:20:54;;;;;;;21.77;3.47;;;;;;;9.95;100.00;100529.25;6120818;23;20002;-89
2023/12/22 10:23:19;;;;;;;18.83;2.80;;;;;;;9.99;100.00;100543.66;6120034;23;20012;-88
2023/12/22 10:25:46;;;;;;;29.95;4.75;;;;;;;9.91;100.00;100535.50;6120400;23;20340;-88
2023/12/22 10:28:13;;;;;;;18.33;3.17;;;;;;;9.99;100.00;100541.06;6121279;23;20082;-88
2023/12/22 10:30:40;;;;;;;25.42;3.88;;;;;;;9.96;100.00;100524.03;6118653;23;20033;-88
2023/12/22 10:33:06;;;;;;;22.60;3.63;;;;;;;9.99;100.00;100538.50;6120562;23;20037;-87
2023/12/22 10:35:32;;;;;;;25.48;4.07;;;;;;;9.97;100.00;100530.88;6121031;23;20059;-89
2023/12/22 10:37:59;;;;;;;20.17;3.75;;;;;;;9.99;100.00;100534.16;6121057;23;20404;-92
2023/12/22 10:40:25;;;;;;;18.50;4.10;;;;;;;10.07;100.00;100539.75;6118817;23;20421;-89
2023/12/22 10:42:50;;;;;;;15.27;2.60;;;;;;;10.01;100.00;100539.25;6120952;23;20002;-86
2023/12/22 10:45:18;;;;;;;22.20;4.40;;;;;;;9.94;100.00;100545.66;6120784;23;20002;-88
2023/12/22 10:47:43;;;;;;;22.77;3.95;;;;;;;10.03;100.00;100546.00;6119576;23;20045;-86
2023/12/22 10:50:13;;;;;;;19.67;3.88;;;;;;;10.02;100.00;100551.22;6120122;23;20026;-88
2023/12/22 10:52:39;;;;;;;24.55;4.07;;;;;;;10.05;100.00;100569.13;6120766;23;20014;-89
2023/12/22 10:55:04;;;;;;;13.82;3.42;;;;;;;10.08;100.00;100553.50;6119461;23;20010;-90
2023/12/22 10:57:37;;;;;;;20.60;3.30;;;;;;;10.17;100.00;100560.75;6120688;23;19998;-89
2023/12/22 11:00:05;;;;;;;22.80;4.40;;;;;;;10.06;100.00;100563.88;6120925;23;20010;-87
2023/12/22 11:02:34;;;;;;;23.95;3.65;;;;;;;10.10;100.00;100561.97;6120214;23;20016;-86
2023/12/22 11:05:05;;;;;;;21.65;3.90;;;;;;;10.13;100.00;100559.22;6120633;23;20168;-87
2023/12/22 11:07:35;;;;;;;12.88;3.13;;;;;;;10.23;100.00;100557.81;6121226;23;20413;-89
2023/12/22 11:10:07;;;;;;;23.85;3.55;;;;;;;10.21;100.00;100546.75;6120886;23;20014;-89
2023/12/22 11:12:37;;;;;;;19.77;3.75;;;;;;;10.24;100.00;100549.19;6120024;23;20336;-89